createdAt,value
2022-11-16T00:00:02.802Z,98720.25
2022-11-16T00:02:35.736Z,98708.13
2022-11-16T00:05:03.715Z,98705.66
2022-11-16T00:07:31.706Z,98708.94
2022-11-16T00:10:00.434Z,98697.81
2022-11-16T00:12:28.653Z,98702.25
2022-11-16T00:14:56.724Z,98696.06
2022-11-16T00:17:24.777Z,98689.34
2022-11-16T00:19:54.259Z,98703.50
2022-11-16T00:22:22.330Z,98707.97
2022-11-16T00:24:50.288Z,98717.53
2022-11-16T00:27:18.227Z,98712.38
2022-11-16T00:29:46.175Z,98718.44
2022-11-16T00:32:14.375Z,98729.44
2022-11-16T00:34:42.438Z,98741.66
2022-11-16T00:37:11.888Z,98728.47
2022-11-16T00:39:39.829Z,98704.91
2022-11-16T00:42:07.798Z,98713.38
2022-11-16T00:44:36.040Z,98721.25
2022-11-16T00:47:03.985Z,98719.41
2022-11-16T00:49:31.875Z,98722.06
2022-11-16T00:51:59.987Z,98713.88
2022-11-16T00:54:29.352Z,98708.38
2022-11-16T00:56:57.419Z,98697.09
2022-11-16T00:59:25.363Z,98699.72
2022-11-16T01:01:53.364Z,98692.75
2022-11-16T01:04:21.331Z,98691.88
2022-11-16T01:06:49.347Z,98691.97
2022-11-16T01:09:17.540Z,98685.91
2022-11-16T01:12:04.702Z,98684.94
2022-11-16T01:14:32.743Z,98672.63
2022-11-16T01:17:00.684Z,98676.06
2022-11-16T01:19:28.871Z,98681.13
2022-11-16T01:21:56.836Z,98679.34
2022-11-16T01:24:25.260Z,98669.63
2022-11-16T01:26:56.890Z,98677.03
2022-11-16T01:29:25.753Z,98673.41
2022-11-16T01:31:53.761Z,98656.94
2022-11-16T01:34:21.999Z,98657.94
2022-11-16T01:36:50.268Z,98652.03
2022-11-16T01:39:19.352Z,98668.66
2022-11-16T01:41:47.282Z,98668.91
2022-11-16T01:44:57.491Z,98675.91
2022-11-16T01:47:25.438Z,98683.84
2022-11-16T01:49:57.654Z,98678.72
2022-11-16T01:52:30.076Z,98669.28
2022-11-16T01:54:58.616Z,98672.50
2022-11-16T01:57:32.848Z,98664.66
2022-11-16T02:00:04.942Z,98660.25
2022-11-16T02:02:32.897Z,98664.31
2022-11-16T02:05:01.611Z,98668.81
2022-11-16T02:08:00.189Z,98667.75
2022-11-16T02:10:50.449Z,98657.38
2022-11-16T02:13:32.789Z,98653.03
2022-11-16T02:16:12.118Z,98652.13
2022-11-16T02:18:51.328Z,98657.31
2022-11-16T02:21:42.602Z,98644.00
2022-11-16T02:24:33.260Z,98642.88
2022-11-16T02:27:38.333Z,98621.69
2022-11-16T02:30:08.999Z,98611.16
2022-11-16T02:32:41.074Z,98616.59
2022-11-16T02:35:14.953Z,98621.81
2022-11-16T02:37:49.209Z,98619.09
2022-11-16T02:40:21.365Z,98609.31
2022-11-16T02:42:54.855Z,98613.72
2022-11-16T02:45:29.086Z,98603.41
2022-11-16T02:48:02.993Z,98592.31
2022-11-16T02:50:32.120Z,98583.06
2022-11-16T02:53:00.063Z,98584.25
2022-11-16T02:55:30.050Z,98592.91
2022-11-16T02:58:01.967Z,98591.19
2022-11-16T03:00:36.504Z,98586.94
2022-11-16T03:03:16.572Z,98580.75
2022-11-16T03:05:49.739Z,98565.84
2022-11-16T03:08:23.340Z,98568.69
2022-11-16T03:11:12.484Z,98574.88
2022-11-16T03:13:42.044Z,98568.78
2022-11-16T03:16:16.946Z,98569.78
2022-11-16T03:18:47.978Z,98564.84
2022-11-16T03:21:22.591Z,98553.66
2022-11-16T03:23:50.992Z,98545.47
2022-11-16T03:26:24.224Z,98548.38
2022-11-16T03:29:00.090Z,98548.47
2022-11-16T03:31:33.576Z,98544.13
2022-11-16T03:34:07.091Z,98536.97
2022-11-16T03:36:38.835Z,98538.91
2022-11-16T03:39:11.130Z,98536.50
2022-11-16T03:41:42.591Z,98562.59
2022-11-16T03:44:13.831Z,98564.28
2022-11-16T03:46:44.707Z,98577.13
2022-11-16T03:49:12.997Z,98570.44
2022-11-16T03:51:41.083Z,98570.38
2022-11-16T03:54:09.008Z,98569.63
2022-11-16T03:56:36.968Z,98555.81
2022-11-16T03:59:04.913Z,98564.91
2022-11-16T04:01:33.163Z,98571.03
2022-11-16T04:04:02.470Z,98566.75
2022-11-16T04:06:47.852Z,98557.13
2022-11-16T04:09:33.291Z,98559.75
2022-11-16T04:12:18.795Z,98551.94
2022-11-16T04:15:04.171Z,98548.44
2022-11-16T04:17:49.589Z,98567.56
2022-11-16T04:20:36.510Z,98573.72
2022-11-16T04:23:30.285Z,98578.09
2022-11-16T04:25:58.793Z,98577.00
2022-11-16T04:28:29.442Z,98583.59
2022-11-16T04:31:17.039Z,98579.19
2022-11-16T04:34:03.117Z,98579.41
2022-11-16T04:36:49.932Z,98575.13
2022-11-16T04:39:17.985Z,98579.81
2022-11-16T04:42:03.207Z,98573.97
2022-11-16T04:44:51.436Z,98559.22
2022-11-16T04:47:18.557Z,98563.81
2022-11-16T04:49:46.560Z,98541.09
2022-11-16T04:52:16.015Z,98525.78
2022-11-16T04:54:43.891Z,98532.59
2022-11-16T04:57:11.856Z,98548.34
2022-11-16T04:59:39.811Z,98517.59
2022-11-16T05:02:10.598Z,98505.09
2022-11-16T05:04:40.203Z,98509.13
2022-11-16T05:07:11.093Z,98503.72
2022-11-16T05:09:43.139Z,98500.25
2022-11-16T05:12:11.719Z,98500.44
2022-11-16T05:14:39.647Z,98491.81
2022-11-16T05:17:07.920Z,98499.50
2022-11-16T05:19:53.065Z,98490.72
2022-11-16T05:22:21.140Z,98494.13
2022-11-16T05:24:51.122Z,98496.94
2022-11-16T05:27:23.076Z,98497.75
2022-11-16T05:29:51.719Z,98493.00
2022-11-16T05:32:24.718Z,98490.22
2022-11-16T05:34:53.919Z,98484.97
2022-11-16T05:37:26.386Z,98485.94
2022-11-16T05:39:57.061Z,98481.09
2022-11-16T05:42:25.411Z,98484.63
2022-11-16T05:44:53.405Z,98488.34
2022-11-16T05:47:21.446Z,98501.25
2022-11-16T05:49:49.420Z,98495.91
2022-11-16T05:52:17.595Z,98504.69
2022-11-16T05:54:45.679Z,98509.50
2022-11-16T05:57:15.429Z,98512.69
2022-11-16T05:59:44.047Z,98509.28
2022-11-16T06:02:12.103Z,98517.31
2022-11-16T06:04:40.067Z,98503.66
2022-11-16T06:07:08.369Z,98513.19
2022-11-16T06:09:36.383Z,98510.66
2022-11-16T06:12:04.698Z,98512.44
2022-11-16T06:14:34.171Z,98512.66
2022-11-16T06:17:02.100Z,98519.78
2022-11-16T06:19:32.522Z,98514.44
2022-11-16T06:22:00.928Z,98522.69
2022-11-16T06:24:28.982Z,98517.16
2022-11-16T06:26:56.918Z,98512.97
2022-11-16T06:29:24.992Z,98520.78
2022-11-16T06:31:54.433Z,98515.63
2022-11-16T06:34:22.364Z,98518.72
2022-11-16T06:36:50.291Z,98515.88
2022-11-16T06:39:18.574Z,98512.94
2022-11-16T06:41:46.569Z,98511.00
2022-11-16T06:44:14.530Z,98511.81
2022-11-16T06:46:42.665Z,98514.44
2022-11-16T06:49:12.034Z,98515.22
2022-11-16T06:51:39.986Z,98518.53
2022-11-16T06:54:08.209Z,98524.75
2022-11-16T06:56:36.456Z,98524.84
2022-11-16T06:59:04.524Z,98527.56
2022-11-16T07:01:35.218Z,98528.78
2022-11-16T07:04:03.308Z,98530.72
2022-11-16T07:06:32.738Z,98535.75
2022-11-16T07:09:00.612Z,98523.72
2022-11-16T07:11:28.753Z,98528.25
2022-11-16T07:13:56.735Z,98540.38
2022-11-16T07:16:24.920Z,98539.09
2022-11-16T07:18:53.475Z,98548.84
2022-11-16T07:21:21.821Z,98546.63
2022-11-16T07:23:51.091Z,98545.38
2022-11-16T07:26:19.349Z,98543.44
2022-11-16T07:28:48.535Z,98541.22
2022-11-16T07:31:17.737Z,98535.13
2022-11-16T07:33:45.770Z,98540.63
2022-11-16T07:36:15.868Z,98534.53
2022-11-16T07:38:44.850Z,98532.34
2022-11-16T07:41:20.682Z,98529.94
2022-11-16T07:43:53.003Z,98524.03
2022-11-16T07:46:47.460Z,98523.28
2022-11-16T07:49:16.107Z,98532.22
2022-11-16T07:51:46.320Z,98530.50
2022-11-16T07:54:15.122Z,98528.97
2022-11-16T07:56:44.574Z,98533.25
2022-11-16T07:59:12.631Z,98531.56
2022-11-16T08:01:40.862Z,98540.19
2022-11-16T08:04:08.927Z,98534.78
2022-11-16T08:06:36.851Z,98530.25
2022-11-16T08:09:04.916Z,98528.06
2022-11-16T08:11:32.927Z,98525.81
2022-11-16T08:14:02.352Z,98523.50
2022-11-16T08:16:33.582Z,98523.13
2022-11-16T08:19:02.339Z,98523.97
2022-11-16T08:21:30.502Z,98529.69
2022-11-16T08:23:59.108Z,98526.63
2022-11-16T08:26:27.742Z,98523.84
2022-11-16T08:28:57.133Z,98526.38
2022-11-16T08:31:28.920Z,98527.38
2022-11-16T08:33:57.614Z,98522.13
2022-11-16T08:36:25.612Z,98528.28
2022-11-16T08:38:53.983Z,98524.88
2022-11-16T08:41:22.782Z,98525.50
2022-11-16T08:43:53.360Z,98529.03
2022-11-16T08:46:22.460Z,98524.69
2022-11-16T08:48:56.863Z,98533.53
2022-11-16T08:51:25.999Z,98541.28
2022-11-16T08:53:57.315Z,98550.59
2022-11-16T08:56:27.700Z,98556.16
2022-11-16T08:58:58.895Z,98560.75
2022-11-16T09:01:29.351Z,98561.59
2022-11-16T09:03:58.939Z,98556.25
2022-11-16T09:06:28.882Z,98558.97
2022-11-16T09:08:57.282Z,98549.81
2022-11-16T09:11:26.672Z,98542.50
2022-11-16T09:13:56.431Z,98545.22
2022-11-16T09:16:28.013Z,98541.00
2022-11-16T09:18:56.358Z,98547.22
2022-11-16T09:21:27.645Z,98544.97
2022-11-16T09:23:57.424Z,98551.06
2022-11-16T09:26:26.854Z,98553.66
2022-11-16T09:28:56.898Z,98550.47
2022-11-16T09:31:27.376Z,98553.22
2022-11-16T09:33:58.263Z,98567.34
2022-11-16T09:36:29.043Z,98560.47
2022-11-16T09:42:08.487Z,98564.81
2022-11-16T09:44:50.229Z,98564.31
2022-11-16T09:47:22.207Z,98570.22
2022-11-16T09:49:58.216Z,98567.94
2022-11-16T09:52:35.600Z,98570.88
2022-11-16T09:55:18.939Z,98584.16
2022-11-16T09:57:48.548Z,98579.69
2022-11-16T10:00:22.747Z,98580.88
2022-11-16T10:03:01.495Z,98589.00
2022-11-16T10:05:36.556Z,98581.16
2022-11-16T10:08:14.452Z,98578.69
2022-11-16T10:10:51.755Z,98570.81
2022-11-16T10:13:35.948Z,98566.53
2022-11-16T10:16:10.815Z,98574.47
2022-11-16T10:18:55.337Z,98568.44
2022-11-16T10:21:40.991Z,98570.31
2022-11-16T10:24:38.242Z,98563.41
2022-11-16T10:27:22.184Z,98561.69
2022-11-16T10:30:00.382Z,98564.34
2022-11-16T10:32:31.130Z,98565.09
2022-11-16T10:35:07.480Z,98563.44
2022-11-16T10:37:39.201Z,98556.53
2022-11-16T10:40:21.114Z,98559.22
2022-11-16T10:43:00.225Z,98561.88
2022-11-16T10:45:36.755Z,98554.84
2022-11-16T10:48:15.808Z,98550.50
2022-11-16T10:50:46.500Z,98545.31
2022-11-16T10:53:16.474Z,98537.47
2022-11-16T10:55:46.193Z,98524.34
2022-11-16T10:58:14.162Z,98517.38
2022-11-16T11:00:47.389Z,98510.38
2022-11-16T11:03:15.788Z,98495.53
2022-11-16T11:05:54.730Z,98489.44
2022-11-16T11:08:30.463Z,98485.94
2022-11-16T11:11:22.690Z,98493.81
2022-11-16T11:14:11.468Z,98484.22
2022-11-16T11:16:41.499Z,98487.72
2022-11-16T11:19:24.232Z,98474.59
2022-11-16T11:21:57.376Z,98470.19
2022-11-16T11:27:24.158Z,98458.81
2022-11-16T11:29:55.268Z,98444.78
2022-11-16T11:32:26.061Z,98438.63
2022-11-16T11:34:56.037Z,98438.59
2022-11-16T11:37:29.021Z,98430.69
2022-11-16T11:40:23.212Z,98429.84
2022-11-16T11:42:58.759Z,98428.94
2022-11-16T11:45:34.091Z,98421.91
2022-11-16T11:48:03.750Z,98416.66
2022-11-16T11:50:43.542Z,98418.34
2022-11-16T11:53:22.002Z,98415.69
2022-11-16T11:55:55.998Z,98405.22
2022-11-16T11:58:29.834Z,98400.78
2022-11-16T12:01:19.532Z,98406.00
2022-11-16T12:04:28.426Z,98397.16
2022-11-16T12:07:05.149Z,98391.00
2022-11-16T12:09:42.525Z,98390.09
2022-11-16T12:12:26.167Z,98382.16
2022-11-16T12:15:14.682Z,98389.22
2022-11-16T12:17:52.967Z,98375.06
2022-11-16T12:20:31.329Z,98367.13
2022-11-16T12:23:18.254Z,98365.38
2022-11-16T12:25:52.572Z,98374.06
2022-11-16T12:28:40.798Z,98377.50
2022-11-16T12:31:33.104Z,98377.47
2022-11-16T12:34:10.102Z,98374.94
2022-11-16T12:36:47.524Z,98380.06
2022-11-16T12:39:25.006Z,98374.06
2022-11-16T12:42:18.826Z,98366.91
2022-11-16T12:45:25.334Z,98355.34
2022-11-16T12:48:35.184Z,98350.84
2022-11-16T12:51:16.179Z,98345.56
2022-11-16T12:54:01.785Z,98334.72
2022-11-16T12:56:38.306Z,98339.19
2022-11-16T12:59:27.497Z,98322.50
2022-11-16T13:02:04.557Z,98305.81
2022-11-16T13:04:41.083Z,98309.16
2022-11-16T13:07:14.658Z,98301.84
2022-11-16T13:09:47.515Z,98286.66
2022-11-16T13:12:18.372Z,98285.75
2022-11-16T13:14:49.191Z,98276.03
2022-11-16T13:17:21.991Z,98266.19
2022-11-16T13:20:11.665Z,98259.16
2022-11-16T13:22:46.778Z,98249.97
2022-11-16T13:25:22.367Z,98248.81
2022-11-16T13:27:54.786Z,98248.25
2022-11-16T13:30:24.740Z,98242.75
2022-11-16T13:33:12.354Z,98245.16
2022-11-16T13:35:41.820Z,98244.50
2022-11-16T13:38:13.145Z,98241.66
2022-11-16T13:40:42.098Z,98229.28
2022-11-16T13:43:19.610Z,98235.44
2022-11-16T13:46:00.335Z,98230.22
2022-11-16T13:48:33.734Z,98220.56
2022-11-16T13:51:05.217Z,98227.72
2022-11-16T13:56:28.978Z,98216.19
2022-11-16T13:58:59.535Z,98205.00
2022-11-16T14:01:57.524Z,98217.53
2022-11-16T14:04:43.371Z,98207.59
2022-11-16T14:10:10.728Z,98187.94
2022-11-16T14:12:52.821Z,98194.75
2022-11-16T14:15:22.007Z,98185.94
2022-11-16T14:17:52.535Z,98173.69
2022-11-16T14:20:51.948Z,98171.25
2022-11-16T14:23:32.082Z,98164.09
2022-11-16T14:26:12.937Z,98159.31
2022-11-16T14:29:05.165Z,98161.91
2022-11-16T14:31:48.901Z,98162.00
2022-11-16T14:34:19.494Z,98159.38
2022-11-16T14:36:49.142Z,98161.38
2022-11-16T14:39:32.769Z,98154.09
2022-11-16T14:42:05.566Z,98158.44
2022-11-16T14:44:38.495Z,98154.53
2022-11-16T14:47:07.246Z,98154.41
2022-11-16T14:49:37.250Z,98145.53
2022-11-16T14:52:08.380Z,98133.63
2022-11-16T14:54:42.426Z,98124.78
2022-11-16T14:57:19.351Z,98122.69
2022-11-16T14:59:47.423Z,98109.59
2022-11-16T15:02:21.198Z,98107.81
2022-11-16T15:04:50.666Z,98094.91
2022-11-16T15:07:20.122Z,98101.19
2022-11-16T15:09:50.634Z,98109.56
2022-11-16T15:12:41.122Z,98104.28
2022-11-16T15:15:16.262Z,98104.34
2022-11-16T15:17:46.473Z,98091.34
2022-11-16T15:20:19.938Z,98095.69
2022-11-16T15:22:51.659Z,98083.28
2022-11-16T15:25:29.133Z,98070.91
2022-11-16T15:28:00.695Z,98077.00
2022-11-16T15:30:30.120Z,98086.50
2022-11-16T15:32:58.603Z,98094.44
2022-11-16T15:35:31.191Z,98076.91
2022-11-16T15:38:06.780Z,98086.59
2022-11-16T15:40:35.878Z,98089.25
2022-11-16T15:43:07.656Z,98092.69
2022-11-16T15:45:37.484Z,98091.78
2022-11-16T15:48:06.490Z,98083.81
2022-11-16T15:50:34.603Z,98085.72
2022-11-16T15:53:02.718Z,98087.44
2022-11-16T15:55:35.152Z,98071.09
2022-11-16T15:58:14.827Z,98071.94
2022-11-16T16:00:43.485Z,98078.38
2022-11-16T16:03:20.829Z,98082.72
2022-11-16T16:05:50.819Z,98082.84
2022-11-16T16:08:27.699Z,98080.47
2022-11-16T16:11:04.434Z,98069.06
2022-11-16T16:13:36.573Z,98080.53
2022-11-16T16:16:27.506Z,98068.38
2022-11-16T16:18:58.366Z,98066.69
2022-11-16T16:21:29.123Z,98061.50
2022-11-16T16:23:58.456Z,98058.03
2022-11-16T16:26:26.439Z,98064.28
2022-11-16T16:28:55.714Z,98059.91
2022-11-16T16:31:23.647Z,98061.72
2022-11-16T16:33:51.693Z,98061.00
2022-11-16T16:36:19.870Z,98053.19
2022-11-16T16:38:47.956Z,98063.69
2022-11-16T16:41:24.052Z,98069.94
2022-11-16T16:43:53.161Z,98083.28
2022-11-16T16:46:22.872Z,98092.91
2022-11-16T16:48:51.019Z,98071.91
2022-11-16T16:51:19.153Z,98073.66
2022-11-16T16:53:47.300Z,98074.50
2022-11-16T16:56:19.325Z,98082.34
2022-11-16T16:58:47.588Z,98082.38
2022-11-16T17:01:17.468Z,98080.78
2022-11-16T17:03:50.293Z,98086.06
2022-11-16T17:06:19.226Z,98090.53
2022-11-16T17:08:47.838Z,98093.09
2022-11-16T17:11:18.793Z,98090.47
2022-11-16T17:13:47.257Z,98099.25
2022-11-16T17:16:16.773Z,98107.97
2022-11-16T17:18:45.110Z,98110.72
2022-11-16T17:21:14.587Z,98109.94
2022-11-16T17:23:43.524Z,98109.03
2022-11-16T17:26:12.428Z,98108.28
2022-11-16T17:28:41.011Z,98112.66
2022-11-16T17:31:13.077Z,98112.59
2022-11-16T17:33:43.371Z,98109.06
2022-11-16T17:36:18.084Z,98107.34
2022-11-16T17:38:46.937Z,98104.75
2022-11-16T17:41:17.049Z,98105.66
2022-11-16T17:43:48.158Z,98106.69
2022-11-16T17:46:18.425Z,98097.94
2022-11-16T17:48:48.492Z,98095.38
2022-11-16T17:51:20.109Z,98097.19
2022-11-16T17:53:50.337Z,98104.19
2022-11-16T17:56:23.898Z,98093.66
2022-11-16T17:58:52.553Z,98088.47
2022-11-16T18:01:21.360Z,98078.97
2022-11-16T18:03:50.135Z,98092.06
2022-11-16T18:06:22.051Z,98087.69
2022-11-16T18:08:51.380Z,98092.13
2022-11-16T18:11:22.222Z,98084.25
2022-11-16T18:13:53.955Z,98090.34
2022-11-16T18:16:24.023Z,98087.75
2022-11-16T18:18:58.144Z,98090.34
2022-11-16T18:21:31.458Z,98100.84
2022-11-16T18:24:00.961Z,98091.25
2022-11-16T18:26:29.649Z,98077.25
2022-11-16T18:28:58.192Z,98077.25
2022-11-16T18:31:27.146Z,98084.25
2022-11-16T18:33:55.325Z,98089.47
2022-11-16T18:36:23.899Z,98090.38
2022-11-16T18:38:54.051Z,98091.25
2022-11-16T18:41:25.185Z,98091.25
2022-11-16T18:43:55.149Z,98086.84
2022-11-16T18:46:25.638Z,98091.22
2022-11-16T18:48:53.845Z,98081.59
2022-11-16T18:51:23.609Z,98085.97
2022-11-16T18:53:53.722Z,98097.34
2022-11-16T18:56:22.934Z,98088.59
2022-11-16T18:58:52.635Z,98089.44
2022-11-16T19:01:23.329Z,98076.34
2022-11-16T19:03:52.393Z,98082.47
2022-11-16T19:06:20.555Z,98082.44
2022-11-16T19:08:56.385Z,98085.97
2022-11-16T19:11:27.281Z,98097.31
2022-11-16T19:13:57.201Z,98084.22
2022-11-16T19:16:26.784Z,98085.09
2022-11-16T19:18:54.930Z,98085.09
2022-11-16T19:21:23.655Z,98078.09
2022-11-16T19:23:53.767Z,98075.50
2022-11-16T19:26:24.141Z,98051.91
2022-11-16T19:28:55.058Z,98061.53
2022-11-16T19:31:27.012Z,98056.28
2022-11-16T19:33:56.506Z,98063.25
2022-11-16T19:36:25.566Z,98058.00
2022-11-16T19:38:54.675Z,98053.66
2022-11-16T19:41:24.221Z,98049.28
2022-11-16T19:43:59.909Z,98043.16
2022-11-16T19:46:29.628Z,98048.38
2022-11-16T19:48:58.651Z,98037.88
2022-11-16T19:51:29.199Z,98037.03
2022-11-16T19:53:59.571Z,98035.28
2022-11-16T19:56:29.049Z,98037.03
2022-11-16T19:58:59.837Z,98044.03
2022-11-16T20:01:30.343Z,98041.38
2022-11-16T20:04:04.220Z,98041.31
2022-11-16T20:06:35.397Z,98022.00
2022-11-16T20:09:09.219Z,98025.59
2022-11-16T20:11:39.648Z,98037.72
2022-11-16T20:14:11.962Z,98044.78
2022-11-16T20:16:44.394Z,98041.34
2022-11-16T20:19:13.566Z,98044.00
2022-11-16T20:21:44.157Z,98046.63
2022-11-16T20:24:14.384Z,98041.41
2022-11-16T20:26:44.941Z,98034.41
2022-11-16T20:29:20.622Z,98029.16
2022-11-16T20:31:49.261Z,98020.44
2022-11-16T20:34:20.405Z,98022.19
2022-11-16T20:36:51.176Z,98027.44
2022-11-16T20:39:21.313Z,98023.94
2022-11-16T20:41:50.153Z,98036.16
2022-11-16T20:44:22.543Z,98022.19
2022-11-16T20:46:52.709Z,98027.44
2022-11-16T20:49:21.738Z,98038.78
2022-11-16T20:51:51.597Z,98038.78
2022-11-16T20:54:20.597Z,98025.69
2022-11-16T20:56:50.581Z,98029.19
2022-11-16T20:59:20.675Z,98036.16
2022-11-16T21:01:49.850Z,98029.19
2022-11-16T21:04:18.838Z,98028.31
2022-11-16T21:06:48.428Z,98030.06
2022-11-16T21:09:22.791Z,98023.94
2022-11-16T21:12:09.185Z,98027.44
2022-11-16T21:14:39.588Z,98030.94
2022-11-16T21:17:08.182Z,98040.53
2022-11-16T21:19:36.729Z,98042.25
2022-11-16T21:22:05.167Z,98050.97
2022-11-16T21:24:34.894Z,98051.88
2022-11-16T21:27:03.561Z,98057.06
2022-11-16T21:29:32.013Z,98061.44
2022-11-16T21:32:02.459Z,98065.84
2022-11-16T21:34:34.646Z,98070.19
2022-11-16T21:37:05.338Z,98064.06
2022-11-16T21:39:33.588Z,98069.31
2022-11-16T21:42:01.847Z,98078.03
2022-11-16T21:44:41.918Z,98077.16
2022-11-16T21:47:11.978Z,98084.16
2022-11-16T21:50:00.870Z,98087.63
2022-11-16T21:52:28.925Z,98093.78
2022-11-16T21:55:00.387Z,98092.91
2022-11-16T21:57:28.356Z,98095.50
2022-11-16T21:59:56.275Z,98097.25
2022-11-16T22:02:25.704Z,98088.53
2022-11-16T22:05:11.007Z,98100.72
2022-11-16T22:07:41.664Z,98091.16
2022-11-16T22:10:11.854Z,98107.81
2022-11-16T22:12:40.399Z,98112.22
2022-11-16T22:15:09.244Z,98113.03
2022-11-16T22:17:42.913Z,98119.09
2022-11-16T22:20:11.731Z,98112.88
2022-11-16T22:22:39.908Z,98121.53
2022-11-16T22:25:09.104Z,98136.28
2022-11-16T22:27:52.435Z,98138.88
2022-11-16T22:30:25.329Z,98152.84
2022-11-16T22:32:54.587Z,98150.09
2022-11-16T22:35:22.963Z,98158.00
2022-11-16T22:37:50.856Z,98162.38
2022-11-16T22:40:19.280Z,98168.47
2022-11-16T22:42:47.467Z,98173.56
2022-11-16T22:45:15.355Z,98165.72
2022-11-16T22:47:43.267Z,98174.44
2022-11-16T22:50:13.227Z,98173.53
2022-11-16T22:52:41.150Z,98166.47
2022-11-16T22:55:09.965Z,98169.06
2022-11-16T22:57:37.895Z,98172.56
2022-11-16T23:00:07.234Z,98157.66
2022-11-16T23:02:35.138Z,98169.91
2022-11-16T23:05:03.100Z,98177.84
2022-11-16T23:07:32.721Z,98171.63
2022-11-16T23:10:00.798Z,98175.22
2022-11-16T23:12:55.205Z,98176.91
2022-11-16T23:15:41.307Z,98183.84
2022-11-16T23:18:09.289Z,98182.78
2022-11-16T23:20:54.570Z,98192.41
2022-11-16T23:23:41.737Z,98212.06
2022-11-16T23:26:32.845Z,98220.06
2022-11-16T23:29:03.536Z,98209.63
2022-11-16T23:31:31.474Z,98210.59
2022-11-16T23:33:59.428Z,98213.19
2022-11-16T23:36:27.366Z,98213.34
2022-11-16T23:38:56.747Z,98209.84
2022-11-16T23:41:42.055Z,98218.56
2022-11-16T23:44:10.051Z,98221.31
2022-11-16T23:46:38.074Z,98224.88
2022-11-16T23:49:06.271Z,98218.75
2022-11-16T23:51:34.348Z,98222.28
2022-11-16T23:54:04.819Z,98220.53
2022-11-16T23:56:32.943Z,98213.59
2022-11-16T23:59:00.975Z,98217.09
